createdAt,value
2023-01-19T00:04:44.578Z,987.83
2023-01-19T00:10:27.888Z,987.79
2023-01-19T00:16:12.267Z,987.77
2023-01-19T00:21:55.468Z,987.69
2023-01-19T00:27:38.868Z,987.74
2023-01-19T00:33:22.083Z,987.67
2023-01-19T00:39:05.240Z,987.73
2023-01-19T00:44:48.557Z,987.82
2023-01-19T00:50:32.361Z,987.85
2023-01-19T00:56:15.578Z,987.88
2023-01-19T01:01:59.025Z,987.91
2023-01-19T01:07:43.444Z,988.1
2023-01-19T01:13:29.529Z,988.07
2023-01-19T01:19:13.796Z,988.1
2023-01-19T01:24:57.687Z,988.08
2023-01-19T01:30:41.272Z,988.05
2023-01-19T01:36:24.481Z,988.15
2023-01-19T01:42:14.497Z,988.16
2023-01-19T01:47:59.346Z,988.14
2023-01-19T01:53:44.169Z,988.17
2023-01-19T01:59:29.701Z,988.17
2023-01-19T02:05:16.848Z,988.21
2023-01-19T02:11:01.331Z,988.26
2023-01-19T02:16:44.910Z,988.31
2023-01-19T02:22:32.806Z,988.28
2023-01-19T02:28:16.283Z,988.24
2023-01-19T02:34:00.573Z,988.31
2023-01-19T02:39:45.951Z,988.33
2023-01-19T02:45:29.262Z,988.35
2023-01-19T02:51:15.000Z,988.46
2023-01-19T02:57:03.267Z,988.41
2023-01-19T03:02:51.305Z,988.44
2023-01-19T03:08:40.708Z,988.43
2023-01-19T03:14:27.333Z,988.31
2023-01-19T03:20:12.315Z,988.4
2023-01-19T03:25:56.719Z,988.35
2023-01-19T03:31:41.426Z,988.35
2023-01-19T03:37:26.751Z,988.37
2023-01-19T03:43:10.618Z,988.38
2023-01-19T03:48:54.273Z,988.55
2023-01-19T03:54:37.924Z,988.58
2023-01-19T04:00:21.477Z,988.62
2023-01-19T04:06:04.860Z,988.61
2023-01-19T04:11:48.175Z,988.7
2023-01-19T04:17:31.912Z,988.71
2023-01-19T04:23:15.147Z,988.78
2023-01-19T04:28:58.524Z,988.76
2023-01-19T04:34:41.872Z,988.74
2023-01-19T04:40:25.134Z,988.71
2023-01-19T04:46:08.431Z,988.81
2023-01-19T04:51:53.121Z,988.88
2023-01-19T04:57:36.479Z,988.83
2023-01-19T05:03:20.084Z,988.85
2023-01-19T05:09:03.993Z,988.88
2023-01-19T05:14:47.299Z,989.03
2023-01-19T05:20:30.613Z,989.03
2023-01-19T05:26:14.144Z,989.06
2023-01-19T05:31:57.813Z,988.98
2023-01-19T05:37:41.285Z,989.07
2023-01-19T05:43:24.636Z,989.11
2023-01-19T05:49:08.216Z,989.16
2023-01-19T05:54:51.745Z,989.15
2023-01-19T06:00:35.044Z,989.06
2023-01-19T06:06:18.387Z,989.09
2023-01-19T06:12:01.662Z,989.12
2023-01-19T06:17:44.873Z,989.19
2023-01-19T06:23:30.769Z,989.17
2023-01-19T06:29:14.189Z,989.16
2023-01-19T06:34:57.528Z,989.17
2023-01-19T06:40:40.790Z,989.23
2023-01-19T06:46:24.191Z,989.35
2023-01-19T06:52:07.414Z,989.47
2023-01-19T06:57:55.531Z,989.48
2023-01-19T07:03:38.900Z,989.54
2023-01-19T07:09:25.727Z,989.63
2023-01-19T07:15:11.219Z,989.74
2023-01-19T07:20:54.382Z,989.74
2023-01-19T07:26:37.486Z,989.87
2023-01-19T07:32:20.774Z,989.9
2023-01-19T07:38:04.605Z,989.96
2023-01-19T07:43:47.894Z,989.97
2023-01-19T07:49:31.088Z,990.07
2023-01-19T07:55:14.774Z,990.13
2023-01-19T08:00:58.536Z,990.17
2023-01-19T08:06:45.856Z,990.28
2023-01-19T08:12:29.509Z,990.36
2023-01-19T08:18:12.915Z,990.43
2023-01-19T08:23:57.166Z,990.47
2023-01-19T08:29:40.668Z,990.51
2023-01-19T08:35:24.040Z,990.62
2023-01-19T08:41:07.482Z,990.74
2023-01-19T08:46:51.665Z,990.78
2023-01-19T08:52:35.820Z,990.84
2023-01-19T08:58:18.952Z,990.86
2023-01-19T09:04:05.210Z,990.89
2023-01-19T09:09:49.527Z,991.02
2023-01-19T09:15:33.613Z,991.05
2023-01-19T09:21:17.182Z,991.07
2023-01-19T09:27:00.408Z,991.07
2023-01-19T09:32:43.878Z,991.04
2023-01-19T09:38:26.990Z,991.04
2023-01-19T09:44:14.814Z,991.05
2023-01-19T09:50:02.282Z,991.07
2023-01-19T09:55:45.643Z,991.17
2023-01-19T10:01:36.127Z,991.15
2023-01-19T10:07:25.960Z,991.23
2023-01-19T10:13:18.069Z,991.19
2023-01-19T10:19:02.951Z,991.25
2023-01-19T10:24:47.466Z,991.24
2023-01-19T10:30:31.845Z,991.2
2023-01-19T10:36:21.027Z,991.18
2023-01-19T10:42:07.074Z,991.2
2023-01-19T10:47:50.380Z,991.15
2023-01-19T10:53:34.121Z,991.12
2023-01-19T10:59:32.941Z,991.07
2023-01-19T11:05:27.085Z,991.07
2023-01-19T11:11:10.494Z,990.99
2023-01-19T11:16:55.993Z,990.99
2023-01-19T11:22:39.382Z,990.96
2023-01-19T11:28:27.700Z,990.98
2023-01-19T11:34:15.936Z,990.95
2023-01-19T11:40:00.846Z,990.95
2023-01-19T11:45:44.986Z,990.9
2023-01-19T11:51:30.759Z,990.88
2023-01-19T11:57:16.616Z,990.88
2023-01-19T12:03:02.256Z,990.7
2023-01-19T12:08:47.676Z,990.69
2023-01-19T12:14:35.369Z,990.67
2023-01-19T12:20:25.454Z,990.61
2023-01-19T12:26:15.885Z,990.61
2023-01-19T12:32:10.412Z,990.62
2023-01-19T12:37:53.847Z,990.7
2023-01-19T12:43:37.230Z,990.75
2023-01-19T12:49:24.323Z,990.68
2023-01-19T12:55:13.754Z,990.7
2023-01-19T13:01:10.084Z,990.68
2023-01-19T13:07:05.399Z,990.62
2023-01-19T13:12:59.601Z,990.65
2023-01-19T13:18:43.235Z,990.62
2023-01-19T13:24:32.218Z,990.58
2023-01-19T13:30:17.916Z,990.63
2023-01-19T13:36:01.387Z,990.6
2023-01-19T13:41:45.144Z,990.58
2023-01-19T13:47:32.314Z,990.66
2023-01-19T13:53:21.984Z,990.64
2023-01-19T13:59:06.963Z,990.59
2023-01-19T14:04:51.293Z,990.61
2023-01-19T14:10:35.289Z,990.7
2023-01-19T14:16:18.798Z,990.66
2023-01-19T14:22:03.277Z,990.75
2023-01-19T14:27:46.657Z,990.74
2023-01-19T14:33:41.120Z,990.73
2023-01-19T14:39:25.958Z,990.72
2023-01-19T14:45:16.882Z,990.73
2023-01-19T14:51:05.035Z,990.72
2023-01-19T14:56:48.172Z,990.73
2023-01-19T15:02:31.526Z,990.83
2023-01-19T15:08:17.495Z,990.88
2023-01-19T15:14:00.954Z,990.83
2023-01-19T15:19:44.548Z,990.88
2023-01-19T15:25:27.816Z,990.95
2023-01-19T15:31:14.222Z,990.93
2023-01-19T15:36:57.558Z,990.96
2023-01-19T15:42:40.926Z,991.03
2023-01-19T15:48:24.353Z,991.14
2023-01-19T15:54:11.136Z,991.21
2023-01-19T15:59:54.516Z,991.23
2023-01-19T16:05:43.496Z,991.24
2023-01-19T16:11:27.256Z,991.26
2023-01-19T16:17:10.542Z,991.34
2023-01-19T16:22:58.568Z,991.36
2023-01-19T16:28:55.995Z,991.44
2023-01-19T16:34:39.219Z,991.52
2023-01-19T16:40:22.528Z,991.52
2023-01-19T16:46:06.419Z,991.62
2023-01-19T16:51:50.257Z,991.68
2023-01-19T16:57:33.414Z,991.7
2023-01-19T17:03:16.789Z,991.81
2023-01-19T17:09:00.403Z,991.87
2023-01-19T17:14:43.732Z,991.95
2023-01-19T17:20:27.162Z,991.94
2023-01-19T17:26:11.283Z,991.94
2023-01-19T17:31:54.589Z,992.01
2023-01-19T17:37:37.954Z,991.96
2023-01-19T17:43:21.372Z,992.02
2023-01-19T17:49:06.026Z,992.08
2023-01-19T17:54:49.371Z,992.07
2023-01-19T18:00:32.740Z,992.12
2023-01-19T18:06:16.542Z,992.11
2023-01-19T18:11:59.807Z,992.2
2023-01-19T18:17:43.233Z,992.15
2023-01-19T18:23:26.880Z,992.18
2023-01-19T18:29:10.439Z,992.15
2023-01-19T18:34:54.216Z,992.28
2023-01-19T18:40:37.733Z,992.32
2023-01-19T18:46:21.048Z,992.36
2023-01-19T18:52:04.603Z,992.33
2023-01-19T18:57:47.990Z,992.41
2023-01-19T19:03:31.441Z,992.43
2023-01-19T19:09:14.954Z,992.39
2023-01-19T19:15:03.527Z,992.45
2023-01-19T19:20:47.227Z,992.47
2023-01-19T19:26:30.295Z,992.46
2023-01-19T19:32:13.662Z,992.54
2023-01-19T19:37:56.952Z,992.54
2023-01-19T19:43:41.011Z,992.63
2023-01-19T19:49:24.299Z,992.69
2023-01-19T19:55:08.722Z,992.7
2023-01-19T20:00:52.490Z,992.69
2023-01-19T20:06:36.375Z,992.84
2023-01-19T20:12:19.560Z,992.89
2023-01-19T20:18:02.754Z,992.87
2023-01-19T20:23:46.580Z,992.96
2023-01-19T20:29:29.937Z,993
2023-01-19T20:35:13.812Z,993
2023-01-19T20:40:57.846Z,993.13
2023-01-19T20:46:41.300Z,993.41
2023-01-19T20:52:24.758Z,993.46
2023-01-19T20:58:08.617Z,993.54
2023-01-19T21:03:52.541Z,993.56
2023-01-19T21:09:36.328Z,993.61
2023-01-19T21:15:20.206Z,993.6
2023-01-19T21:21:03.997Z,993.66
2023-01-19T21:26:47.984Z,993.74
2023-01-19T21:32:31.400Z,993.89
2023-01-19T21:38:14.986Z,993.97
2023-01-19T21:43:58.415Z,994.07
2023-01-19T21:49:41.946Z,994.21
2023-01-19T21:55:25.526Z,994.34
2023-01-19T22:01:10.292Z,994.38
2023-01-19T22:06:54.007Z,994.45
2023-01-19T22:12:38.459Z,994.5
2023-01-19T22:18:21.894Z,994.52
2023-01-19T22:24:05.498Z,994.6
2023-01-19T22:29:49.284Z,994.63
2023-01-19T22:35:32.687Z,994.65
2023-01-19T22:41:18.335Z,994.68
2023-01-19T22:47:01.677Z,994.78
2023-01-19T22:52:44.864Z,994.75
2023-01-19T22:58:28.511Z,994.76
2023-01-19T23:04:13.321Z,994.78
2023-01-19T23:09:57.077Z,994.77
2023-01-19T23:15:41.789Z,994.84
2023-01-19T23:21:26.245Z,994.85
2023-01-19T23:27:09.432Z,994.86
2023-01-19T23:32:53.245Z,994.92
2023-01-19T23:38:36.958Z,994.91
2023-01-19T23:44:21.612Z,994.88
2023-01-19T23:50:06.200Z,994.81
2023-01-19T23:55:49.680Z,994.88
